createdAt,value
2022-08-16T00:00:04.175Z,9.719818
2022-08-16T00:00:56.925Z,9.719803
2022-08-16T00:01:55.963Z,9.719791
2022-08-16T00:02:55.944Z,9.719770
2022-08-16T00:03:56.144Z,9.719776
2022-08-16T00:04:59.937Z,9.719720
2022-08-16T00:05:57.449Z,9.719726
2022-08-16T00:06:55.853Z,9.719634
2022-08-16T00:07:56.941Z,9.719617
2022-08-16T00:08:55.846Z,9.719682
2022-08-16T00:09:55.837Z,9.719791
2022-08-16T00:10:55.904Z,9.719831
2022-08-16T00:11:55.919Z,9.719740
2022-08-16T00:12:55.745Z,9.719673
2022-08-16T00:13:55.838Z,9.719644
2022-08-16T00:14:56.514Z,9.719599
2022-08-16T00:15:55.902Z,9.719707
2022-08-16T00:17:05.551Z,9.719807
2022-08-16T00:17:57.496Z,9.719912
2022-08-16T00:18:55.781Z,9.719987
2022-08-16T00:19:55.731Z,9.719955
2022-08-16T00:20:55.729Z,9.719969
2022-08-16T00:22:01.005Z,9.719890
2022-08-16T00:22:56.699Z,9.719779
2022-08-16T00:23:55.705Z,9.719620
2022-08-16T00:24:55.680Z,9.719728
2022-08-16T00:26:36.408Z,9.719628
2022-08-16T00:26:56.654Z,9.719784
2022-08-16T00:27:55.656Z,9.719845
2022-08-16T00:28:55.655Z,9.719734
2022-08-16T00:30:08.672Z,9.719510
2022-08-16T00:30:56.643Z,9.719619
2022-08-16T00:32:00.855Z,9.719693
2022-08-16T00:32:57.203Z,9.719770
2022-08-16T00:33:55.619Z,9.719788
2022-08-16T00:34:55.575Z,9.719739
2022-08-16T00:35:56.586Z,9.719722
2022-08-16T00:36:55.915Z,9.719690
2022-08-16T00:37:58.397Z,9.719763
2022-08-16T00:38:56.317Z,9.719828
2022-08-16T00:39:57.284Z,9.719820
2022-08-16T00:40:55.639Z,9.719870
2022-08-16T00:41:55.505Z,9.719741
2022-08-16T00:42:55.493Z,9.719789
2022-08-16T00:43:55.490Z,9.719678
2022-08-16T00:44:55.523Z,9.719619
2022-08-16T00:46:00.273Z,9.719665
2022-08-16T00:47:02.468Z,9.719662
2022-08-16T00:47:56.599Z,9.719680
2022-08-16T00:48:55.502Z,9.719689
2022-08-16T00:49:56.295Z,9.719607
2022-08-16T00:50:55.634Z,9.719623
2022-08-16T00:51:55.754Z,9.719692
2022-08-16T00:52:55.796Z,9.719698
2022-08-16T00:53:55.784Z,9.719689
2022-08-16T00:54:55.406Z,9.719675
2022-08-16T00:55:55.368Z,9.719670
2022-08-16T00:56:58.035Z,9.719687
2022-08-16T00:57:58.500Z,9.719727
2022-08-16T00:58:55.336Z,9.719714
2022-08-16T00:59:59.654Z,9.719723
2022-08-16T01:00:56.441Z,9.719722
2022-08-16T01:01:55.341Z,9.719761
2022-08-16T01:02:55.295Z,9.719757
2022-08-16T01:03:55.294Z,9.719739
2022-08-16T01:05:10.455Z,9.719751
2022-08-16T01:05:56.345Z,9.719714
2022-08-16T01:07:01.347Z,9.719706
2022-08-16T01:07:56.247Z,9.719647
2022-08-16T01:08:55.244Z,9.719659
2022-08-16T01:09:55.233Z,9.719703
2022-08-16T01:10:55.211Z,9.719659
2022-08-16T01:11:55.491Z,9.719668
2022-08-16T01:12:55.201Z,9.719662
2022-08-16T01:13:55.238Z,9.719660
2022-08-16T01:14:55.275Z,9.719666
2022-08-16T01:15:55.215Z,9.719678
2022-08-16T01:16:55.308Z,9.719687
2022-08-16T01:17:56.176Z,9.719688
2022-08-16T01:18:55.149Z,9.719653
2022-08-16T01:19:56.891Z,9.719662
2022-08-16T01:20:55.171Z,9.719677
2022-08-16T01:21:55.122Z,9.719671
2022-08-16T01:22:55.838Z,9.719674
2022-08-16T01:24:00.847Z,9.719673
2022-08-16T01:24:56.202Z,9.719686
2022-08-16T01:26:00.025Z,9.719689
2022-08-16T01:26:56.519Z,9.719687
2022-08-16T01:27:56.177Z,9.719663
2022-08-16T01:28:55.140Z,9.719653
2022-08-16T01:29:57.703Z,9.719648
2022-08-16T01:30:55.052Z,9.719655
2022-08-16T01:31:55.030Z,9.719660
2022-08-16T01:33:02.137Z,9.719643
2022-08-16T01:33:54.968Z,9.719639
2022-08-16T01:34:56.783Z,9.719639
2022-08-16T01:35:56.224Z,9.719632
2022-08-16T01:36:58.154Z,9.719653
2022-08-16T01:37:54.954Z,9.719663
2022-08-16T01:38:57.251Z,9.719673
2022-08-16T01:39:54.964Z,9.719658
2022-08-16T01:40:54.936Z,9.719697
2022-08-16T01:41:55.104Z,9.719640
2022-08-16T01:42:55.482Z,9.719636
2022-08-16T01:43:54.968Z,9.719642
2022-08-16T01:44:54.989Z,9.719674
2022-08-16T01:45:57.843Z,9.719647
2022-08-16T01:46:54.974Z,9.719578
2022-08-16T01:47:54.997Z,9.719583
2022-08-16T01:48:54.941Z,9.719638
2022-08-16T01:50:42.000Z,9.719635
2022-08-16T01:51:08.533Z,9.719607
2022-08-16T01:51:55.831Z,9.719627
2022-08-16T01:52:54.915Z,9.719640
2022-08-16T01:53:55.806Z,9.719580
2022-08-16T01:54:54.824Z,9.719653
2022-08-16T01:55:54.802Z,9.719623
2022-08-16T01:56:54.784Z,9.719611
2022-08-16T01:57:56.442Z,9.719651
2022-08-16T01:58:54.939Z,9.719580
2022-08-16T01:59:54.998Z,9.719619
2022-08-16T02:00:54.887Z,9.719720
2022-08-16T02:02:00.018Z,9.719582
2022-08-16T02:02:55.782Z,9.719640
2022-08-16T02:03:58.647Z,9.719645
2022-08-16T02:04:55.707Z,9.719596
2022-08-16T02:05:54.701Z,9.719663
2022-08-16T02:06:54.686Z,9.719623
2022-08-16T02:07:54.739Z,9.719595
2022-08-16T02:08:54.671Z,9.719626
2022-08-16T02:09:58.638Z,9.719641
2022-08-16T02:10:55.692Z,9.719639
2022-08-16T02:11:54.632Z,9.719594
2022-08-16T02:13:00.103Z,9.719609
2022-08-16T02:13:54.916Z,9.719541
2022-08-16T02:14:54.628Z,9.719526
2022-08-16T02:15:54.595Z,9.719543
2022-08-16T02:16:54.600Z,9.719639
2022-08-16T02:17:54.593Z,9.719584
2022-08-16T02:18:54.570Z,9.719566
2022-08-16T02:19:58.688Z,9.719598
2022-08-16T02:20:55.558Z,9.719637
2022-08-16T02:22:08.904Z,9.719646
2022-08-16T02:22:55.562Z,9.719584
2022-08-16T02:23:55.788Z,9.719597
2022-08-16T02:24:54.788Z,9.719606
2022-08-16T02:25:54.704Z,9.719596
2022-08-16T02:26:54.582Z,9.719573
2022-08-16T02:27:54.614Z,9.719460
2022-08-16T02:28:54.580Z,9.719465
2022-08-16T02:30:04.900Z,9.719276
2022-08-16T02:30:55.538Z,9.719415
2022-08-16T02:32:03.842Z,9.719563
2022-08-16T02:32:55.515Z,9.719648
2022-08-16T02:33:54.667Z,9.719673
2022-08-16T02:34:56.350Z,9.719566
2022-08-16T02:35:58.163Z,9.719614
2022-08-16T02:36:55.402Z,9.719578
2022-08-16T02:37:56.157Z,9.719571
2022-08-16T02:38:54.450Z,9.719685
2022-08-16T02:39:54.483Z,9.719668
2022-08-16T02:40:54.859Z,9.719670
2022-08-16T02:41:54.347Z,9.719631
2022-08-16T02:42:54.406Z,9.719681
2022-08-16T02:43:54.403Z,9.719650
2022-08-16T02:44:54.414Z,9.719655
2022-08-16T02:45:54.464Z,9.719681
2022-08-16T02:46:54.402Z,9.719716
2022-08-16T02:48:01.775Z,9.719674
2022-08-16T02:48:55.377Z,9.719669
2022-08-16T02:50:52.874Z,9.719687
2022-08-16T02:51:06.784Z,9.719684
2022-08-16T02:51:55.242Z,9.719677
2022-08-16T02:52:54.313Z,9.719687
2022-08-16T02:53:54.242Z,9.719670
2022-08-16T02:54:55.261Z,9.719692
2022-08-16T02:55:54.210Z,9.719703
2022-08-16T02:56:54.254Z,9.719701
2022-08-16T02:57:54.775Z,9.719699
2022-08-16T02:58:54.319Z,9.719705
2022-08-16T02:59:54.207Z,9.719746
2022-08-16T03:00:56.075Z,9.719728
2022-08-16T03:01:55.413Z,9.719721
2022-08-16T03:02:55.969Z,9.719736
2022-08-16T03:04:39.667Z,9.719811
2022-08-16T03:04:55.127Z,9.719752
2022-08-16T03:05:54.158Z,9.719707
2022-08-16T03:06:56.823Z,9.719656
2022-08-16T03:07:54.086Z,9.719628
2022-08-16T03:08:54.138Z,9.719660
2022-08-16T03:09:54.067Z,9.719649
2022-08-16T03:10:54.068Z,9.719645
2022-08-16T03:11:55.161Z,9.719680
2022-08-16T03:12:56.290Z,9.719683
2022-08-16T03:13:56.541Z,9.719690
2022-08-16T03:14:54.024Z,9.719694
2022-08-16T03:15:54.041Z,9.719681
2022-08-16T03:16:59.052Z,9.719699
2022-08-16T03:17:55.079Z,9.719699
2022-08-16T03:18:54.005Z,9.719723
2022-08-16T03:19:59.800Z,9.719691
2022-08-16T03:20:55.702Z,9.719679
2022-08-16T03:21:53.957Z,9.719595
2022-08-16T03:22:53.946Z,9.719644
2022-08-16T03:23:53.932Z,9.719661
2022-08-16T03:24:53.938Z,9.719654
2022-08-16T03:25:53.922Z,9.719650
2022-08-16T03:26:53.977Z,9.719661
2022-08-16T03:27:54.020Z,9.719696
2022-08-16T03:28:53.986Z,9.719650
2022-08-16T03:29:54.789Z,9.719664
2022-08-16T03:30:55.374Z,9.719681
2022-08-16T03:31:53.859Z,9.719655
2022-08-16T03:32:53.958Z,9.719604
2022-08-16T03:33:53.890Z,9.719662
2022-08-16T03:34:53.941Z,9.719693
2022-08-16T03:35:56.954Z,9.719730
2022-08-16T03:36:53.868Z,9.719694
2022-08-16T03:38:03.248Z,9.719645
2022-08-16T03:38:54.828Z,9.719626
2022-08-16T03:39:56.690Z,9.719672
2022-08-16T03:40:53.771Z,9.719657
2022-08-16T03:41:59.874Z,9.719662
2022-08-16T03:43:18.951Z,9.719656
2022-08-16T03:43:54.751Z,9.719698
2022-08-16T03:45:03.430Z,9.719670
2022-08-16T03:45:54.762Z,9.719643
2022-08-16T03:46:53.716Z,9.719630
2022-08-16T03:47:58.324Z,9.719645
2022-08-16T03:48:53.720Z,9.719645
2022-08-16T03:49:53.740Z,9.719636
2022-08-16T03:51:00.087Z,9.719682
2022-08-16T03:51:54.714Z,9.719644
2022-08-16T03:52:59.613Z,9.719656
2022-08-16T03:54:01.060Z,9.719650
2022-08-16T03:54:59.406Z,9.719666
2022-08-16T03:55:54.628Z,9.719654
2022-08-16T03:56:56.797Z,9.719662
2022-08-16T03:57:53.611Z,9.719692
2022-08-16T03:58:53.610Z,9.719627
2022-08-16T03:59:53.607Z,9.719584
2022-08-16T04:00:59.041Z,9.719646
2022-08-16T04:01:54.608Z,9.719688
2022-08-16T04:02:53.570Z,9.719781
2022-08-16T04:03:55.175Z,9.719699
2022-08-16T04:04:53.639Z,9.719659
2022-08-16T04:05:54.054Z,9.719639
2022-08-16T04:06:53.789Z,9.719627
2022-08-16T04:07:53.639Z,9.719617
2022-08-16T04:08:53.603Z,9.719663
2022-08-16T04:09:53.725Z,9.719630
2022-08-16T04:10:53.633Z,9.719645
2022-08-16T04:11:53.537Z,9.719659
2022-08-16T04:12:59.354Z,9.719604
2022-08-16T04:14:01.310Z,9.719600
2022-08-16T04:14:58.389Z,9.719610
2022-08-16T04:15:53.478Z,9.719620
2022-08-16T04:16:53.424Z,9.719619
2022-08-16T04:17:53.411Z,9.719677
2022-08-16T04:18:53.424Z,9.719629
2022-08-16T04:19:54.888Z,9.719632
2022-08-16T04:20:53.409Z,9.719648
2022-08-16T04:21:53.461Z,9.719637
2022-08-16T04:22:53.419Z,9.719633
2022-08-16T04:23:54.719Z,9.719643
2022-08-16T04:24:54.803Z,9.719656
2022-08-16T04:25:53.356Z,9.719657
2022-08-16T04:26:53.327Z,9.719670
2022-08-16T04:27:55.681Z,9.719653
2022-08-16T04:29:16.350Z,9.719661
2022-08-16T04:29:54.337Z,9.719640
2022-08-16T04:30:54.293Z,9.719646
2022-08-16T04:31:56.185Z,9.719659
2022-08-16T04:32:53.310Z,9.719653
2022-08-16T04:33:53.256Z,9.719722
2022-08-16T04:34:53.670Z,9.719665
2022-08-16T04:35:53.259Z,9.719645
2022-08-16T04:36:53.282Z,9.719655
2022-08-16T04:37:53.820Z,9.719626
2022-08-16T04:38:53.253Z,9.719700
2022-08-16T04:39:57.012Z,9.719635
2022-08-16T04:40:54.358Z,9.719639
2022-08-16T04:41:57.128Z,9.719646
2022-08-16T04:42:53.205Z,9.719679
2022-08-16T04:43:53.196Z,9.719602
2022-08-16T04:44:55.331Z,9.719664
2022-08-16T04:46:00.129Z,9.719651
2022-08-16T04:47:02.960Z,9.719632
2022-08-16T04:47:56.186Z,9.719629
2022-08-16T04:48:53.265Z,9.719667
2022-08-16T04:49:53.248Z,9.719646
2022-08-16T04:50:53.040Z,9.719617
2022-08-16T04:51:53.877Z,9.719711
2022-08-16T04:52:53.305Z,9.719700
2022-08-16T04:53:53.042Z,9.719702
2022-08-16T04:54:53.070Z,9.719686
2022-08-16T04:55:53.644Z,9.719689
2022-08-16T04:56:53.092Z,9.719646
2022-08-16T04:57:53.645Z,9.719632
2022-08-16T04:58:53.059Z,9.719690
2022-08-16T04:59:54.149Z,9.719692
2022-08-16T05:00:53.163Z,9.719664
2022-08-16T05:01:58.788Z,9.719693
2022-08-16T05:02:55.628Z,9.720014
2022-08-16T05:04:00.434Z,9.720404
2022-08-16T05:04:54.009Z,9.719702
2022-08-16T05:05:59.598Z,9.719627
2022-08-16T05:06:54.039Z,9.719688
2022-08-16T05:07:58.668Z,9.719613
2022-08-16T05:08:56.432Z,9.719597
2022-08-16T05:09:52.921Z,9.719636
2022-08-16T05:10:52.897Z,9.719645
2022-08-16T05:11:57.585Z,9.719671
2022-08-16T05:12:52.887Z,9.719582
2022-08-16T05:13:52.887Z,9.719543
2022-08-16T05:15:02.094Z,9.719548
2022-08-16T05:15:53.870Z,9.719678
2022-08-16T05:16:52.840Z,9.719768
2022-08-16T05:17:58.796Z,9.719657
2022-08-16T05:18:53.822Z,9.719672
2022-08-16T05:19:57.507Z,9.719634
2022-08-16T05:21:01.802Z,9.719545
2022-08-16T05:21:53.793Z,9.719580
2022-08-16T05:22:53.052Z,9.719705
2022-08-16T05:23:58.564Z,9.719690
2022-08-16T05:24:54.950Z,9.719687
2022-08-16T05:25:52.905Z,9.719620
2022-08-16T05:26:52.839Z,9.719728
2022-08-16T05:27:52.852Z,9.719547
2022-08-16T05:28:55.798Z,9.719692
2022-08-16T05:30:01.040Z,9.719684
2022-08-16T05:30:53.881Z,9.719392
2022-08-16T05:31:53.243Z,9.719660
2022-08-16T05:32:52.888Z,9.719726
2022-08-16T05:33:53.530Z,9.719551
2022-08-16T05:34:52.756Z,9.719556
2022-08-16T05:35:54.954Z,9.719805
2022-08-16T05:36:52.641Z,9.719722
2022-08-16T05:37:52.653Z,9.719651
2022-08-16T05:38:52.621Z,9.719675
2022-08-16T05:39:55.268Z,9.719713
2022-08-16T05:40:59.724Z,9.720092
2022-08-16T05:41:53.603Z,9.719873
2022-08-16T05:42:52.733Z,9.719901
2022-08-16T05:43:52.580Z,9.719935
2022-08-16T05:44:53.624Z,9.719872
2022-08-16T05:45:52.590Z,9.720428
2022-08-16T05:46:52.546Z,9.720163
2022-08-16T05:48:00.307Z,9.719739
2022-08-16T05:48:54.708Z,9.719525
2022-08-16T05:49:52.542Z,9.719621
2022-08-16T05:50:52.978Z,9.719615
2022-08-16T05:51:52.497Z,9.719656
2022-08-16T05:52:52.481Z,9.719649
2022-08-16T05:53:52.487Z,9.719537
2022-08-16T05:54:58.443Z,9.719586
2022-08-16T05:55:53.463Z,9.719515
2022-08-16T05:56:52.434Z,9.719616
2022-08-16T05:57:52.821Z,9.719774
2022-08-16T05:58:52.431Z,9.719748
2022-08-16T05:59:59.819Z,9.719788
2022-08-16T06:00:53.420Z,9.719766
2022-08-16T06:01:52.459Z,9.719732
2022-08-16T06:02:52.399Z,9.719643
2022-08-16T06:03:52.424Z,9.719687
2022-08-16T06:04:52.408Z,9.719705
2022-08-16T06:05:52.475Z,9.719686
2022-08-16T06:06:56.974Z,9.719683
2022-08-16T06:07:58.243Z,9.719694
2022-08-16T06:08:53.381Z,9.719681
2022-08-16T06:09:52.512Z,9.719647
2022-08-16T06:11:02.629Z,9.719694
2022-08-16T06:11:53.341Z,9.719642
2022-08-16T06:12:55.359Z,9.719664
2022-08-16T06:13:52.306Z,9.719725
2022-08-16T06:14:52.309Z,9.719724
2022-08-16T06:15:52.312Z,9.719717
2022-08-16T06:16:52.274Z,9.719749
2022-08-16T06:17:52.255Z,9.719734
2022-08-16T06:18:52.253Z,9.719762
2022-08-16T06:19:52.228Z,9.719775
2022-08-16T06:20:55.089Z,9.719854
2022-08-16T06:21:54.869Z,9.719793
2022-08-16T06:22:58.658Z,9.719713
2022-08-16T06:23:54.330Z,9.719651
2022-08-16T06:24:54.447Z,9.719628
2022-08-16T06:25:53.213Z,9.719639
2022-08-16T06:26:57.866Z,9.719764
2022-08-16T06:27:57.476Z,9.719752
2022-08-16T06:28:53.136Z,9.719706
2022-08-16T06:29:52.131Z,9.719790
2022-08-16T06:30:52.222Z,9.719746
2022-08-16T06:31:52.209Z,9.719727
2022-08-16T06:32:52.429Z,9.719734
2022-08-16T06:33:52.294Z,9.719773
2022-08-16T06:34:56.707Z,9.719702
2022-08-16T06:35:55.074Z,9.719703
2022-08-16T06:36:59.364Z,9.719716
2022-08-16T06:37:53.056Z,9.719748
2022-08-16T06:38:55.375Z,9.719793
2022-08-16T06:39:52.077Z,9.719707
2022-08-16T06:40:52.027Z,9.719802
2022-08-16T06:41:52.017Z,9.719821
2022-08-16T06:42:57.141Z,9.719913
2022-08-16T06:43:51.990Z,9.719917
2022-08-16T06:44:51.983Z,9.719915
2022-08-16T06:45:51.987Z,9.719815
2022-08-16T06:46:51.925Z,9.719796
2022-08-16T06:47:52.851Z,9.719728
2022-08-16T06:48:52.004Z,9.719691
2022-08-16T06:49:53.837Z,9.719677
2022-08-16T06:50:52.068Z,9.719719
2022-08-16T06:51:52.618Z,9.719666
2022-08-16T06:53:00.223Z,9.719674
2022-08-16T06:53:52.920Z,9.719664
2022-08-16T06:54:51.973Z,9.719694
2022-08-16T06:55:53.878Z,9.719664
2022-08-16T06:56:54.207Z,9.719693
2022-08-16T06:57:51.861Z,9.719687
2022-08-16T06:58:51.985Z,9.719645
2022-08-16T06:59:58.172Z,9.719637
2022-08-16T07:00:51.903Z,9.719631
2022-08-16T07:01:54.810Z,9.719648
2022-08-16T07:02:52.295Z,9.719668
2022-08-16T07:03:55.708Z,9.719677
2022-08-16T07:04:52.888Z,9.719687
2022-08-16T07:05:52.051Z,9.719670
2022-08-16T07:06:51.802Z,9.719665
2022-08-16T07:07:51.759Z,9.719658
2022-08-16T07:08:51.718Z,9.719642
2022-08-16T07:09:51.741Z,9.719617
2022-08-16T07:10:51.847Z,9.719626
2022-08-16T07:11:52.199Z,9.719623
2022-08-16T07:13:03.873Z,9.719613
2022-08-16T07:14:00.137Z,9.719613
2022-08-16T07:14:52.689Z,9.719628
2022-08-16T07:15:51.703Z,9.719602
2022-08-16T07:16:51.756Z,9.719577
2022-08-16T07:17:51.746Z,9.719582
2022-08-16T07:18:59.097Z,9.719608
2022-08-16T07:20:03.812Z,9.719652
2022-08-16T07:20:52.681Z,9.719637
2022-08-16T07:21:59.639Z,9.719604
2022-08-16T07:22:53.114Z,9.719572
2022-08-16T07:23:57.814Z,9.719563
2022-08-16T07:24:52.562Z,9.719534
2022-08-16T07:25:51.608Z,9.719537
2022-08-16T07:26:51.525Z,9.719537
2022-08-16T07:27:51.504Z,9.719547
2022-08-16T07:28:51.601Z,9.719562
2022-08-16T07:29:51.627Z,9.719576
2022-08-16T07:30:51.555Z,9.719571
2022-08-16T07:31:51.545Z,9.719591
2022-08-16T07:32:52.088Z,9.719609
2022-08-16T07:33:54.862Z,9.719627
2022-08-16T07:34:51.503Z,9.719586
2022-08-16T07:35:51.503Z,9.719558
2022-08-16T07:36:58.229Z,9.719581
2022-08-16T07:37:51.412Z,9.719555
2022-08-16T07:38:51.522Z,9.719554
2022-08-16T07:39:51.571Z,9.719580
2022-08-16T07:40:59.747Z,9.719524
2022-08-16T07:41:52.432Z,9.719571
2022-08-16T07:42:51.420Z,9.719618
2022-08-16T07:43:51.414Z,9.719636
2022-08-16T07:44:51.407Z,9.719555
2022-08-16T07:45:53.251Z,9.719478
2022-08-16T07:46:55.536Z,9.719510
2022-08-16T07:47:51.495Z,9.719588
2022-08-16T07:48:51.407Z,9.719548
2022-08-16T07:49:52.863Z,9.719654
2022-08-16T07:50:55.740Z,9.719649
2022-08-16T07:51:55.918Z,9.719653
2022-08-16T07:52:51.461Z,9.719641
2022-08-16T07:54:02.526Z,9.719699
2022-08-16T07:54:53.323Z,9.719683
2022-08-16T07:55:51.424Z,9.719692
2022-08-16T07:56:51.363Z,9.719668
2022-08-16T07:58:00.659Z,9.719641
2022-08-16T07:58:55.625Z,9.719593
2022-08-16T07:59:52.274Z,9.719569
2022-08-16T08:00:51.551Z,9.719597
2022-08-16T08:01:53.024Z,9.719631
2022-08-16T08:02:52.052Z,9.719576
2022-08-16T08:03:51.249Z,9.719582
2022-08-16T08:04:51.196Z,9.719668
2022-08-16T08:05:51.223Z,9.719629
2022-08-16T08:06:51.378Z,9.719608
2022-08-16T08:07:51.446Z,9.719680
2022-08-16T08:08:52.782Z,9.719662
2022-08-16T08:09:51.166Z,9.719697
2022-08-16T08:10:51.249Z,9.719649
2022-08-16T08:12:00.941Z,9.719670
2022-08-16T08:12:52.321Z,9.719609
2022-08-16T08:13:51.339Z,9.719637
2022-08-16T08:14:51.163Z,9.719615
2022-08-16T08:15:53.098Z,9.719563
2022-08-16T08:16:51.142Z,9.719669
2022-08-16T08:17:51.237Z,9.719720
2022-08-16T08:18:56.136Z,9.719744
2022-08-16T08:19:53.326Z,9.719720
2022-08-16T08:20:59.560Z,9.719706
2022-08-16T08:21:59.118Z,9.719684
2022-08-16T08:22:52.024Z,9.719611
2022-08-16T08:23:51.020Z,9.719606
2022-08-16T08:24:51.006Z,9.719614
2022-08-16T08:25:52.743Z,9.719597
2022-08-16T08:26:51.005Z,9.719715
2022-08-16T08:27:50.980Z,9.719717
2022-08-16T08:28:51.966Z,9.719707
2022-08-16T08:30:43.955Z,9.719630
2022-08-16T08:31:02.743Z,9.719733
2022-08-16T08:31:51.962Z,9.719730
2022-08-16T08:32:59.736Z,9.719643
2022-08-16T08:33:52.147Z,9.719632
2022-08-16T08:34:50.913Z,9.719646
2022-08-16T08:35:51.291Z,9.719603
2022-08-16T08:36:54.418Z,9.719605
2022-08-16T08:37:55.280Z,9.719660
2022-08-16T08:38:51.903Z,9.719602
2022-08-16T08:39:55.218Z,9.719687
2022-08-16T08:40:50.954Z,9.719716
2022-08-16T08:41:51.742Z,9.719583
2022-08-16T08:42:50.882Z,9.719539
2022-08-16T08:43:51.971Z,9.719640
2022-08-16T08:44:50.839Z,9.719583
2022-08-16T08:45:53.011Z,9.719761
2022-08-16T08:46:59.799Z,9.719883
2022-08-16T08:47:54.299Z,9.719660
2022-08-16T08:49:00.084Z,9.719731
2022-08-16T08:49:55.890Z,9.719604
2022-08-16T08:50:51.759Z,9.719560
2022-08-16T08:51:50.799Z,9.719611
2022-08-16T08:52:50.914Z,9.719560
2022-08-16T08:53:57.961Z,9.719725
2022-08-16T08:54:51.669Z,9.719707
2022-08-16T08:55:58.751Z,9.719719
2022-08-16T08:56:50.717Z,9.719772
2022-08-16T08:57:50.647Z,9.719625
2022-08-16T08:58:54.800Z,9.719628
2022-08-16T08:59:51.681Z,9.719649
2022-08-16T09:00:51.640Z,9.719593
2022-08-16T09:01:56.793Z,9.719581
2022-08-16T09:02:52.199Z,9.719521
2022-08-16T09:03:50.697Z,9.719495
2022-08-16T09:04:50.646Z,9.719564
2022-08-16T09:05:51.650Z,9.719348
2022-08-16T09:06:50.671Z,9.719394
2022-08-16T09:08:00.631Z,9.719580
2022-08-16T09:08:51.635Z,9.719903
2022-08-16T09:09:50.677Z,9.719726
2022-08-16T09:11:02.241Z,9.719736
2022-08-16T09:12:04.025Z,9.719748
2022-08-16T09:12:51.843Z,9.719762
2022-08-16T09:13:51.137Z,9.719729
2022-08-16T09:14:51.287Z,9.719700
2022-08-16T09:15:50.578Z,9.719753
2022-08-16T09:17:02.798Z,9.719779
2022-08-16T09:17:53.516Z,9.719774
2022-08-16T09:18:54.902Z,9.719718
2022-08-16T09:19:55.177Z,9.719722
2022-08-16T09:20:58.876Z,9.719640
2022-08-16T09:21:56.018Z,9.719601
2022-08-16T09:22:51.330Z,9.719735
2022-08-16T09:23:50.487Z,9.719681
2022-08-16T09:24:52.041Z,9.719596
2022-08-16T09:25:50.635Z,9.719629
2022-08-16T09:26:52.460Z,9.719739
2022-08-16T09:27:57.792Z,9.719689
2022-08-16T09:29:14.722Z,9.719722
2022-08-16T09:29:59.892Z,9.719725
2022-08-16T09:30:51.411Z,9.719615
2022-08-16T09:31:53.529Z,9.719639
2022-08-16T09:32:50.654Z,9.719644
2022-08-16T09:33:51.975Z,9.719579
2022-08-16T09:34:50.413Z,9.719566
2022-08-16T09:35:53.111Z,9.719677
2022-08-16T09:36:54.635Z,9.719652
2022-08-16T09:38:00.640Z,9.719709
2022-08-16T09:38:51.311Z,9.719613
2022-08-16T09:39:51.407Z,9.719561
2022-08-16T09:40:50.420Z,9.719588
2022-08-16T09:41:53.559Z,9.719635
2022-08-16T09:43:05.275Z,9.719629
2022-08-16T09:43:58.009Z,9.719715
2022-08-16T09:45:11.854Z,9.719700
2022-08-16T09:45:51.290Z,9.719628
2022-08-16T09:46:52.864Z,9.719611
2022-08-16T09:47:57.320Z,9.719653
2022-08-16T09:48:51.303Z,9.719668
2022-08-16T09:49:51.046Z,9.719651
2022-08-16T09:50:50.248Z,9.719645
2022-08-16T09:51:50.413Z,9.719664
2022-08-16T09:52:50.459Z,9.719705
2022-08-16T09:53:54.014Z,9.719692
2022-08-16T09:54:50.254Z,9.719674
2022-08-16T09:55:50.360Z,9.719622
2022-08-16T09:56:53.318Z,9.719590
2022-08-16T09:57:52.948Z,9.719578
2022-08-16T09:59:05.525Z,9.719608
2022-08-16T09:59:56.379Z,9.719639
2022-08-16T10:00:51.217Z,9.719646
2022-08-16T10:01:50.200Z,9.719649
2022-08-16T10:02:50.286Z,9.719651
2022-08-16T10:04:02.773Z,9.719645
2022-08-16T10:04:54.622Z,9.719616
2022-08-16T10:05:50.118Z,9.719615
2022-08-16T10:06:50.210Z,9.719627
2022-08-16T10:07:50.536Z,9.719640
2022-08-16T10:09:05.375Z,9.719640
2022-08-16T10:09:55.797Z,9.719644
2022-08-16T10:10:51.154Z,9.719604
2022-08-16T10:11:51.157Z,9.719600
2022-08-16T10:12:56.057Z,9.719608
2022-08-16T10:13:51.232Z,9.719576
2022-08-16T10:14:50.242Z,9.719674
2022-08-16T10:15:55.427Z,9.719629
2022-08-16T10:16:51.040Z,9.719647
2022-08-16T10:18:00.396Z,9.719667
2022-08-16T10:19:00.656Z,9.719657
2022-08-16T10:19:51.007Z,9.719655
2022-08-16T10:20:50.022Z,9.719631
2022-08-16T10:21:56.562Z,9.719638
2022-08-16T10:22:55.412Z,9.719681
2022-08-16T10:23:50.976Z,9.719655
2022-08-16T10:24:55.573Z,9.719630
2022-08-16T10:27:00.758Z,9.719642
2022-08-16T10:27:20.324Z,9.719641
2022-08-16T10:27:56.802Z,9.719621
2022-08-16T10:28:51.185Z,9.719646
2022-08-16T10:30:00.098Z,9.719630
2022-08-16T10:30:56.605Z,9.719664
2022-08-16T10:31:53.226Z,9.719630
2022-08-16T10:32:50.031Z,9.719625
2022-08-16T10:33:49.985Z,9.719576
2022-08-16T10:34:51.390Z,9.719623
2022-08-16T10:35:49.971Z,9.719543
2022-08-16T10:36:54.367Z,9.719564
2022-08-16T10:37:50.175Z,9.719680
2022-08-16T10:38:49.902Z,9.719687
2022-08-16T10:39:49.966Z,9.719499
2022-08-16T10:40:50.839Z,9.719662
2022-08-16T10:41:49.858Z,9.719569
2022-08-16T10:42:50.398Z,9.719644
2022-08-16T10:43:50.278Z,9.719651
2022-08-16T10:44:53.779Z,9.719646
2022-08-16T10:45:57.191Z,9.719660
2022-08-16T10:46:50.900Z,9.719666
2022-08-16T10:48:03.194Z,9.719627
2022-08-16T10:48:50.862Z,9.719590
2022-08-16T10:49:49.955Z,9.719604
2022-08-16T10:50:49.813Z,9.719678
2022-08-16T10:52:03.272Z,9.719636
2022-08-16T10:52:52.707Z,9.719674
2022-08-16T10:53:49.846Z,9.719619
2022-08-16T10:55:57.857Z,9.719622
2022-08-16T10:56:55.539Z,9.719543
2022-08-16T10:57:50.908Z,9.719620
2022-08-16T10:58:49.709Z,9.719629
2022-08-16T10:59:53.203Z,9.719618
2022-08-16T11:00:55.471Z,9.719590
2022-08-16T11:02:59.982Z,9.719638
2022-08-16T11:03:54.546Z,9.719698
2022-08-16T11:05:08.045Z,9.719628
2022-08-16T11:06:07.440Z,9.719616
2022-08-16T11:07:54.885Z,9.719580
2022-08-16T11:09:21.017Z,9.719579
2022-08-16T11:09:50.672Z,9.719595
2022-08-16T11:11:11.364Z,9.719494
2022-08-16T11:12:52.702Z,9.719598
2022-08-16T11:13:58.066Z,9.719648
2022-08-16T11:15:55.487Z,9.719515
2022-08-16T11:17:11.040Z,9.719573
2022-08-16T11:18:36.724Z,9.719691
2022-08-16T11:19:05.345Z,9.719537
2022-08-16T11:20:50.632Z,9.719805
2022-08-16T11:22:50.652Z,9.719665
2022-08-16T11:23:56.988Z,9.719624
2022-08-16T11:25:11.965Z,9.719608
2022-08-16T11:26:07.060Z,9.719697
2022-08-16T11:27:18.718Z,9.719577
2022-08-16T11:27:50.664Z,9.719626
2022-08-16T11:29:52.091Z,9.719630
2022-08-16T11:30:57.413Z,9.719630
2022-08-16T11:31:54.300Z,9.719644
2022-08-16T11:32:49.642Z,9.719688
2022-08-16T11:33:53.097Z,9.719624
2022-08-16T11:35:13.299Z,9.719625
2022-08-16T11:36:53.690Z,9.719632
2022-08-16T11:38:06.077Z,9.719705
2022-08-16T11:38:55.749Z,9.719666
2022-08-16T11:39:55.257Z,9.719695
2022-08-16T11:40:52.327Z,9.719726
2022-08-16T11:41:49.420Z,9.719720
2022-08-16T11:42:49.407Z,9.719725
2022-08-16T11:43:49.377Z,9.719758
2022-08-16T11:44:56.283Z,9.719734
2022-08-16T11:45:53.600Z,9.719737
2022-08-16T11:46:49.363Z,9.719714
2022-08-16T11:47:49.855Z,9.719709
2022-08-16T11:48:49.348Z,9.719696
2022-08-16T11:49:49.388Z,9.719691
2022-08-16T11:50:49.371Z,9.719660
2022-08-16T11:51:49.317Z,9.719687
2022-08-16T11:52:49.375Z,9.719697